createdAt,value
2023-02-27T00:00:04.202Z,65.71
2023-02-27T00:02:31.223Z,66.40
2023-02-27T00:04:58.053Z,66.12
2023-02-27T00:07:26.233Z,65.86
2023-02-27T00:09:53.381Z,65.78
2023-02-27T00:12:20.307Z,66.19
2023-02-27T00:14:46.908Z,66.31
2023-02-27T00:17:13.510Z,66.38
2023-02-27T00:19:43.017Z,66.87
2023-02-27T00:22:09.645Z,66.75
2023-02-27T00:24:36.312Z,67.22
2023-02-27T00:27:03.147Z,66.62
2023-02-27T00:29:29.747Z,67.05
2023-02-27T00:31:56.419Z,67.52
2023-02-27T00:34:24.231Z,67.14
2023-02-27T00:36:52.824Z,67.78
2023-02-27T00:39:19.447Z,67.98
2023-02-27T00:41:46.067Z,67.49
2023-02-27T00:44:12.695Z,67.64
2023-02-27T00:46:39.480Z,68.30
2023-02-27T00:49:06.076Z,68.59
2023-02-27T00:51:32.713Z,68.05
2023-02-27T00:53:59.272Z,67.99
2023-02-27T00:56:26.449Z,67.67
2023-02-27T00:58:53.182Z,67.31
2023-02-27T01:01:21.778Z,67.07
2023-02-27T01:03:48.448Z,67.11
2023-02-27T01:06:15.033Z,67.49
2023-02-27T01:08:41.666Z,67.51
2023-02-27T01:11:08.262Z,67.58
2023-02-27T01:13:34.865Z,67.15
2023-02-27T01:16:01.584Z,67.65
2023-02-27T01:18:28.897Z,68.26
2023-02-27T01:20:56.152Z,67.74
2023-02-27T01:23:23.629Z,68.25
2023-02-27T01:25:50.283Z,68.47
2023-02-27T01:28:17.116Z,68.26
2023-02-27T01:30:44.335Z,68.13
2023-02-27T01:33:14.317Z,68.44
2023-02-27T01:35:40.940Z,68.75
2023-02-27T01:38:07.879Z,68.07
2023-02-27T01:40:40.022Z,68.69
2023-02-27T01:43:10.336Z,68.93
2023-02-27T01:45:42.373Z,68.60
2023-02-27T01:48:16.384Z,69.06
2023-02-27T01:50:49.877Z,69.25
2023-02-27T01:53:18.788Z,68.90
2023-02-27T01:55:48.277Z,69.34
2023-02-27T01:58:15.982Z,69.49
2023-02-27T02:00:43.056Z,69.36
2023-02-27T02:03:31.185Z,70.26
2023-02-27T02:05:59.889Z,70.18
2023-02-27T02:08:30.098Z,69.98
2023-02-27T02:10:58.358Z,69.93
2023-02-27T02:13:25.775Z,70.64
2023-02-27T02:16:07.541Z,70.28
2023-02-27T02:19:16.310Z,70.79
2023-02-27T02:22:34.990Z,70.50
2023-02-27T02:25:29.455Z,70.57
2023-02-27T02:28:21.214Z,70.47
2023-02-27T02:31:10.181Z,71.10
2023-02-27T02:34:10.838Z,71.02
2023-02-27T02:37:03.745Z,71.07
2023-02-27T02:39:58.349Z,71.00
2023-02-27T02:42:31.789Z,71.13
2023-02-27T02:45:18.292Z,71.52
2023-02-27T02:48:17.486Z,71.48
2023-02-27T02:51:09.971Z,71.45
2023-02-27T02:53:51.093Z,71.67
2023-02-27T02:56:40.029Z,71.25
2023-02-27T02:59:17.320Z,71.77
2023-02-27T03:01:51.686Z,71.98
2023-02-27T03:04:32.067Z,71.57
2023-02-27T03:07:28.891Z,71.77
2023-02-27T03:10:33.252Z,72.01
2023-02-27T03:13:29.401Z,72.55
2023-02-27T03:16:09.280Z,72.25
2023-02-27T03:18:50.136Z,72.78
2023-02-27T03:21:24.470Z,72.71
2023-02-27T03:23:54.404Z,72.76
2023-02-27T03:26:29.497Z,72.70
2023-02-27T03:29:00.952Z,73.18
2023-02-27T03:31:38.277Z,73.29
2023-02-27T03:34:35.360Z,73.63
2023-02-27T03:37:15.230Z,73.45
2023-02-27T03:39:49.231Z,73.50
2023-02-27T03:42:22.946Z,73.60
2023-02-27T03:45:24.623Z,73.77
2023-02-27T03:47:51.972Z,74.19
2023-02-27T03:50:19.114Z,74.25
2023-02-27T03:52:46.352Z,74.17
2023-02-27T03:55:19.290Z,73.88
2023-02-27T03:57:48.104Z,73.62
2023-02-27T04:00:18.808Z,73.92
2023-02-27T04:02:47.278Z,73.67
2023-02-27T04:05:18.752Z,73.56
2023-02-27T04:07:53.802Z,73.76
2023-02-27T04:11:15.161Z,74.01
2023-02-27T04:13:44.684Z,73.26
2023-02-27T04:16:24.204Z,73.18
2023-02-27T04:18:57.880Z,73.68
2023-02-27T04:21:35.221Z,73.61
2023-02-27T04:24:07.516Z,73.09
2023-02-27T04:26:49.228Z,73.26
2023-02-27T04:29:27.252Z,72.75
2023-02-27T04:32:02.543Z,72.80
2023-02-27T04:34:43.880Z,72.91
2023-02-27T04:37:17.908Z,73.10
2023-02-27T04:39:58.339Z,72.89
2023-02-27T04:42:30.263Z,73.29
2023-02-27T04:45:00.689Z,73.46
2023-02-27T04:47:31.336Z,73.67
2023-02-27T04:50:21.882Z,73.92
2023-02-27T04:53:00.037Z,73.30
2023-02-27T04:55:49.390Z,73.45
2023-02-27T04:58:25.441Z,73.44
2023-02-27T05:00:57.505Z,72.97
2023-02-27T05:03:28.891Z,73.21
2023-02-27T05:06:00.056Z,72.98
2023-02-27T05:08:44.758Z,73.14
2023-02-27T05:11:23.711Z,72.95
2023-02-27T05:13:58.983Z,72.87
2023-02-27T05:16:40.061Z,73.22
2023-02-27T05:19:08.068Z,73.24
2023-02-27T05:21:46.162Z,72.94
2023-02-27T05:24:46.839Z,73.19
2023-02-27T05:27:22.408Z,73.48
2023-02-27T05:29:51.120Z,73.25
2023-02-27T05:32:59.383Z,73.79
2023-02-27T05:35:38.269Z,73.84
2023-02-27T05:38:06.775Z,73.54
2023-02-27T05:40:39.543Z,73.54
2023-02-27T05:43:10.902Z,73.02
2023-02-27T05:45:41.092Z,72.76
2023-02-27T05:48:19.706Z,73.00
2023-02-27T05:50:51.743Z,72.67
2023-02-27T05:53:21.072Z,72.74
2023-02-27T05:55:52.697Z,72.25
2023-02-27T05:58:24.497Z,72.67
2023-02-27T06:00:58.763Z,73.00
2023-02-27T06:03:27.017Z,73.13
2023-02-27T06:05:55.312Z,72.61
2023-02-27T06:08:22.216Z,72.56
2023-02-27T06:10:49.961Z,72.84
2023-02-27T06:13:19.610Z,72.85
2023-02-27T06:15:46.740Z,73.44
2023-02-27T06:18:15.100Z,73.08
2023-02-27T06:20:43.109Z,73.55
2023-02-27T06:23:10.676Z,73.86
2023-02-27T06:25:37.575Z,73.54
2023-02-27T06:28:05.045Z,73.45
2023-02-27T06:30:31.669Z,73.58
2023-02-27T06:32:58.300Z,73.90
2023-02-27T06:35:24.912Z,74.63
2023-02-27T06:37:51.457Z,74.88
2023-02-27T06:40:19.162Z,74.92
2023-02-27T06:42:45.872Z,74.59
2023-02-27T06:45:14.177Z,74.95
2023-02-27T06:47:41.900Z,75.54
2023-02-27T06:50:11.303Z,75.07
2023-02-27T06:52:38.994Z,75.15
2023-02-27T06:55:07.380Z,75.08
2023-02-27T06:57:34.058Z,74.30
2023-02-27T07:00:00.774Z,74.18
2023-02-27T07:02:27.336Z,74.24
2023-02-27T07:04:53.999Z,73.93
2023-02-27T07:07:34.310Z,73.78
2023-02-27T07:10:06.533Z,73.17
2023-02-27T07:12:33.156Z,73.34
2023-02-27T07:15:00.132Z,73.40
2023-02-27T07:17:26.748Z,73.50
2023-02-27T07:19:53.321Z,72.28
2023-02-27T07:22:19.943Z,72.38
2023-02-27T07:24:46.501Z,72.01
2023-02-27T07:27:13.094Z,71.56
2023-02-27T07:29:39.678Z,71.02
2023-02-27T07:32:06.448Z,70.86
2023-02-27T07:34:33.132Z,70.48
2023-02-27T07:36:59.713Z,70.51
2023-02-27T07:39:26.351Z,70.77
2023-02-27T07:41:52.915Z,71.15
2023-02-27T07:44:19.800Z,70.92
2023-02-27T07:46:47.439Z,70.63
2023-02-27T07:49:14.217Z,69.87
2023-02-27T07:51:41.199Z,70.97
2023-02-27T07:54:07.876Z,71.11
2023-02-27T07:56:34.629Z,70.93
2023-02-27T07:59:01.301Z,71.03
2023-02-27T08:01:27.960Z,70.59
2023-02-27T08:03:55.348Z,70.51
2023-02-27T08:06:22.220Z,69.96
2023-02-27T08:08:48.827Z,69.02
2023-02-27T08:11:15.590Z,69.20
2023-02-27T08:13:59.512Z,68.99
2023-02-27T08:16:27.355Z,68.43
2023-02-27T08:18:54.634Z,68.39
2023-02-27T08:21:21.215Z,67.96
2023-02-27T08:23:48.073Z,67.60
2023-02-27T08:26:15.135Z,66.56
2023-02-27T08:28:41.790Z,67.00
2023-02-27T08:31:08.754Z,67.19
2023-02-27T08:33:36.413Z,66.37
2023-02-27T08:36:03.094Z,65.27
2023-02-27T08:38:29.732Z,65.90
2023-02-27T08:40:56.302Z,65.57
2023-02-27T08:43:23.767Z,65.31
2023-02-27T08:45:51.191Z,64.95
2023-02-27T08:48:18.583Z,65.07
2023-02-27T08:50:46.308Z,65.34
2023-02-27T08:53:13.357Z,64.97
2023-02-27T08:55:39.994Z,64.72
2023-02-27T08:58:06.610Z,64.99
2023-02-27T09:00:33.203Z,64.61
2023-02-27T09:03:01.330Z,63.44
2023-02-27T09:05:28.875Z,63.33
2023-02-27T09:07:55.561Z,63.32
2023-02-27T09:10:22.687Z,61.54
2023-02-27T09:12:49.410Z,60.14
2023-02-27T09:15:16.733Z,60.73
2023-02-27T09:17:43.504Z,59.81
2023-02-27T09:20:10.845Z,60.33
2023-02-27T09:22:37.887Z,60.42
2023-02-27T09:25:05.283Z,60.36
2023-02-27T09:27:31.866Z,60.14
2023-02-27T09:29:59.296Z,59.26
2023-02-27T09:32:27.324Z,59.12
2023-02-27T09:34:54.039Z,60.05
2023-02-27T09:37:20.745Z,59.92
2023-02-27T09:39:47.687Z,59.87
2023-02-27T09:42:17.126Z,60.16
2023-02-27T09:44:49.624Z,59.70
2023-02-27T09:47:51.139Z,60.36
2023-02-27T09:50:34.053Z,59.94
2023-02-27T09:53:00.983Z,59.05
2023-02-27T09:55:32.094Z,59.13
2023-02-27T09:58:36.533Z,60.18
2023-02-27T10:01:08.374Z,60.19
2023-02-27T10:04:05.698Z,61.38
2023-02-27T10:06:48.518Z,61.21
2023-02-27T10:09:30.225Z,60.02
2023-02-27T10:12:35.948Z,62.78
2023-02-27T10:15:12.888Z,63.21
2023-02-27T10:17:44.930Z,64.35
2023-02-27T10:20:22.542Z,64.18
2023-02-27T10:22:51.391Z,63.43
2023-02-27T10:25:30.716Z,64.03
2023-02-27T10:28:08.777Z,63.61
2023-02-27T10:30:35.688Z,62.79
2023-02-27T10:33:10.566Z,62.76
2023-02-27T10:35:43.929Z,62.94
2023-02-27T10:38:18.163Z,62.49
2023-02-27T10:40:46.259Z,62.92
2023-02-27T10:43:19.483Z,63.18
2023-02-27T10:45:46.145Z,61.66
2023-02-27T10:48:14.451Z,61.37
2023-02-27T10:50:43.560Z,60.95
2023-02-27T10:53:25.332Z,60.72
2023-02-27T10:56:00.199Z,61.75
2023-02-27T10:58:34.471Z,62.05
2023-02-27T11:01:07.049Z,61.45
2023-02-27T11:03:35.365Z,60.65
2023-02-27T11:06:06.734Z,60.22
2023-02-27T11:08:34.445Z,60.58
2023-02-27T11:11:11.863Z,59.40
2023-02-27T11:13:41.530Z,59.02
2023-02-27T11:16:13.037Z,59.51
2023-02-27T11:18:43.400Z,59.03
2023-02-27T11:21:21.185Z,59.41
2023-02-27T11:24:03.520Z,57.92
2023-02-27T11:26:41.429Z,58.28
2023-02-27T11:29:18.914Z,58.05
2023-02-27T11:31:50.821Z,58.56
2023-02-27T11:34:39.516Z,58.44
2023-02-27T11:37:18.684Z,58.38
2023-02-27T11:39:57.461Z,57.91
2023-02-27T11:42:30.568Z,57.58
2023-02-27T11:45:02.599Z,57.47
2023-02-27T11:47:38.989Z,56.89
2023-02-27T11:50:10.799Z,57.61
2023-02-27T11:52:58.885Z,57.57
2023-02-27T11:55:29.198Z,56.23
2023-02-27T11:58:04.719Z,56.50
2023-02-27T12:00:38.575Z,56.75
2023-02-27T12:03:27.790Z,56.02
2023-02-27T12:05:59.108Z,56.67
2023-02-27T12:08:53.886Z,56.35
2023-02-27T12:11:38.069Z,56.18
2023-02-27T12:14:16.530Z,56.31
2023-02-27T12:17:11.172Z,55.14
2023-02-27T12:19:55.927Z,55.33
2023-02-27T12:22:26.759Z,55.60
2023-02-27T12:25:03.252Z,54.47
2023-02-27T12:27:57.136Z,54.72
2023-02-27T12:30:31.784Z,54.00
2023-02-27T12:33:02.241Z,53.27
2023-02-27T12:35:35.163Z,53.14
2023-02-27T12:38:02.739Z,53.96
2023-02-27T12:40:58.598Z,53.47
2023-02-27T12:43:36.041Z,53.38
2023-02-27T12:46:17.244Z,53.98
2023-02-27T12:48:52.728Z,54.74
2023-02-27T12:51:35.064Z,53.12
2023-02-27T12:54:23.027Z,52.04
2023-02-27T12:57:08.258Z,51.64
2023-02-27T13:00:11.697Z,51.50
2023-02-27T13:02:49.109Z,50.49
2023-02-27T13:05:22.716Z,50.70
2023-02-27T13:08:00.744Z,50.85
2023-02-27T13:10:54.089Z,50.49
2023-02-27T13:13:38.680Z,50.87
2023-02-27T13:16:21.135Z,51.46
2023-02-27T13:18:54.915Z,51.56
2023-02-27T13:21:24.255Z,50.73
2023-02-27T13:24:10.028Z,52.34
2023-02-27T13:26:48.121Z,49.38
2023-02-27T13:29:17.098Z,50.42
2023-02-27T13:32:00.495Z,48.73
2023-02-27T13:35:01.653Z,48.14
2023-02-27T13:37:51.049Z,47.73
2023-02-27T13:40:29.833Z,48.53
2023-02-27T13:43:49.862Z,48.31
2023-02-27T13:46:25.099Z,48.40
2023-02-27T13:49:20.074Z,48.31
2023-02-27T13:51:56.712Z,48.80
2023-02-27T13:54:28.078Z,48.14
2023-02-27T13:56:54.602Z,48.31
2023-02-27T13:59:25.685Z,46.83
2023-02-27T14:02:10.578Z,46.64
2023-02-27T14:04:47.196Z,47.09
2023-02-27T14:07:21.401Z,46.01
2023-02-27T14:09:52.117Z,46.19
2023-02-27T14:12:45.784Z,46.65
2023-02-27T14:15:22.121Z,46.00
2023-02-27T14:17:52.537Z,45.51
2023-02-27T14:20:24.524Z,45.12
2023-02-27T14:23:16.010Z,45.07
2023-02-27T14:25:47.069Z,45.75
2023-02-27T14:28:26.306Z,45.17
2023-02-27T14:31:01.107Z,45.83
2023-02-27T14:33:40.994Z,44.56
2023-02-27T14:36:22.998Z,44.54
2023-02-27T14:38:50.948Z,43.65
2023-02-27T14:41:51.460Z,43.91
2023-02-27T14:44:24.274Z,45.05
2023-02-27T14:46:53.858Z,45.02
2023-02-27T14:49:29.809Z,44.80
2023-02-27T14:51:56.890Z,44.21
2023-02-27T14:54:25.915Z,45.32
2023-02-27T14:57:01.883Z,45.51
2023-02-27T14:59:33.986Z,44.83
2023-02-27T15:02:04.189Z,44.99
2023-02-27T15:04:33.177Z,44.14
2023-02-27T15:07:00.740Z,44.58
2023-02-27T15:09:35.608Z,44.90
2023-02-27T15:12:04.614Z,44.74
2023-02-27T15:14:36.173Z,45.35
2023-02-27T15:17:03.588Z,44.63
2023-02-27T15:19:35.270Z,44.87
2023-02-27T15:22:05.217Z,45.33
2023-02-27T15:24:49.740Z,44.88
2023-02-27T15:27:20.192Z,45.22
2023-02-27T15:29:55.987Z,45.89
2023-02-27T15:32:34.313Z,46.04
2023-02-27T15:35:14.778Z,46.03
2023-02-27T15:37:48.846Z,46.11
2023-02-27T15:40:21.185Z,45.61
2023-02-27T15:42:48.209Z,46.02
2023-02-27T15:45:20.390Z,46.09
2023-02-27T15:47:48.370Z,46.83
2023-02-27T15:50:17.935Z,46.15
2023-02-27T15:52:55.058Z,46.36
2023-02-27T15:55:25.666Z,46.17
2023-02-27T15:58:02.304Z,46.36
2023-02-27T16:00:31.696Z,46.69
2023-02-27T16:02:59.318Z,46.69
2023-02-27T16:05:36.689Z,46.76
2023-02-27T16:08:05.786Z,46.76
2023-02-27T16:10:40.516Z,46.83
2023-02-27T16:13:29.303Z,46.63
2023-02-27T16:16:00.221Z,46.55
2023-02-27T16:18:31.986Z,47.35
2023-02-27T16:21:11.966Z,47.77
2023-02-27T16:23:39.029Z,47.88
2023-02-27T16:26:32.102Z,48.09
2023-02-27T16:29:14.081Z,48.16
2023-02-27T16:31:47.787Z,47.86
2023-02-27T16:34:14.526Z,48.17
2023-02-27T16:36:43.176Z,48.52
2023-02-27T16:39:13.210Z,48.58
2023-02-27T16:41:39.794Z,48.53
2023-02-27T16:44:06.377Z,49.09
2023-02-27T16:46:32.934Z,49.20
2023-02-27T16:49:04.452Z,49.40
2023-02-27T16:51:37.609Z,49.72
2023-02-27T16:54:04.553Z,49.86
2023-02-27T16:56:38.094Z,49.52
2023-02-27T16:59:06.373Z,50.59
2023-02-27T17:01:34.205Z,49.69
2023-02-27T17:04:01.351Z,49.97
2023-02-27T17:06:28.632Z,49.80
2023-02-27T17:08:56.099Z,49.57
2023-02-27T17:11:22.785Z,49.43
2023-02-27T17:13:49.345Z,50.19
2023-02-27T17:16:16.164Z,50.58
2023-02-27T17:18:42.811Z,50.52
2023-02-27T17:21:09.401Z,50.41
2023-02-27T17:23:35.977Z,51.13
2023-02-27T17:26:02.603Z,51.02
2023-02-27T17:28:29.307Z,51.06
2023-02-27T17:30:55.927Z,50.97
2023-02-27T17:33:22.568Z,51.20
2023-02-27T17:35:49.399Z,50.61
2023-02-27T17:38:15.956Z,50.22
2023-02-27T17:40:42.542Z,50.69
2023-02-27T17:43:09.152Z,50.95
2023-02-27T17:45:35.836Z,50.86
2023-02-27T17:48:02.616Z,51.00
2023-02-27T17:50:32.036Z,50.78
2023-02-27T17:52:58.600Z,50.83
2023-02-27T17:55:25.293Z,50.89
2023-02-27T17:57:51.910Z,51.10
2023-02-27T18:00:19.205Z,51.38
2023-02-27T18:02:46.122Z,51.75
2023-02-27T18:05:13.265Z,51.45
2023-02-27T18:07:40.596Z,51.70
2023-02-27T18:10:09.114Z,52.01
2023-02-27T18:12:36.920Z,52.27
2023-02-27T18:15:05.904Z,53.19
2023-02-27T18:17:33.063Z,52.90
2023-02-27T18:19:59.863Z,52.82
2023-02-27T18:22:27.256Z,53.17
2023-02-27T18:24:54.752Z,53.22
2023-02-27T18:27:22.206Z,53.07
2023-02-27T18:29:50.095Z,53.94
2023-02-27T18:32:17.519Z,53.63
2023-02-27T18:34:44.641Z,53.43
2023-02-27T18:37:11.480Z,53.81
2023-02-27T18:39:38.214Z,54.75
2023-02-27T18:42:06.684Z,54.29
2023-02-27T18:44:33.515Z,54.59
2023-02-27T18:47:00.134Z,54.64
2023-02-27T18:49:26.773Z,55.69
2023-02-27T18:51:53.356Z,56.09
2023-02-27T18:54:19.978Z,55.77
2023-02-27T18:56:48.535Z,56.66
2023-02-27T18:59:15.174Z,56.36
2023-02-27T19:01:41.829Z,56.94
2023-02-27T19:04:09.501Z,56.46
2023-02-27T19:06:43.186Z,56.99
2023-02-27T19:09:13.166Z,56.71
2023-02-27T19:11:40.322Z,56.70
2023-02-27T19:14:10.565Z,57.18
2023-02-27T19:16:37.260Z,57.76
2023-02-27T19:19:04.982Z,57.58
2023-02-27T19:21:32.727Z,57.54
2023-02-27T19:23:59.398Z,57.64
2023-02-27T19:26:27.407Z,58.18
2023-02-27T19:28:55.700Z,58.56
2023-02-27T19:31:25.997Z,57.82
2023-02-27T19:33:52.700Z,58.59
2023-02-27T19:36:21.806Z,59.06
2023-02-27T19:38:48.860Z,59.24
2023-02-27T19:41:19.682Z,59.37
2023-02-27T19:43:47.405Z,58.90
2023-02-27T19:46:16.991Z,58.85
2023-02-27T19:48:43.628Z,58.73
2023-02-27T19:51:12.305Z,58.42
2023-02-27T19:53:39.953Z,58.44
2023-02-27T19:56:11.159Z,58.46
2023-02-27T19:58:39.333Z,58.54
2023-02-27T20:01:06.804Z,58.93
2023-02-27T20:03:35.154Z,58.76
2023-02-27T20:06:06.446Z,58.87
2023-02-27T20:08:34.198Z,58.98
2023-02-27T20:11:05.173Z,59.03
2023-02-27T20:13:32.222Z,59.22
2023-02-27T20:16:05.102Z,59.05
2023-02-27T20:18:33.190Z,59.76
2023-02-27T20:21:06.507Z,59.58
2023-02-27T20:23:36.251Z,59.74
2023-02-27T20:26:13.357Z,59.62
2023-02-27T20:28:40.997Z,60.12
2023-02-27T20:31:12.986Z,60.46
2023-02-27T20:33:40.612Z,60.38
2023-02-27T20:36:09.623Z,60.40
2023-02-27T20:38:40.709Z,59.98
2023-02-27T20:41:19.354Z,60.42
2023-02-27T20:43:46.336Z,60.57
2023-02-27T20:46:16.204Z,61.02
2023-02-27T20:48:43.624Z,60.94
2023-02-27T20:51:13.561Z,61.37
2023-02-27T20:53:41.921Z,61.66
2023-02-27T20:56:09.616Z,61.44
2023-02-27T20:58:37.669Z,61.89
2023-02-27T21:01:12.006Z,62.02
2023-02-27T21:03:40.540Z,62.15
2023-02-27T21:06:10.000Z,62.39
2023-02-27T21:08:39.074Z,62.66
2023-02-27T21:11:11.202Z,62.91
2023-02-27T21:13:38.489Z,62.86
2023-02-27T21:16:07.403Z,63.29
2023-02-27T21:18:35.351Z,63.82
2023-02-27T21:21:07.548Z,64.11
2023-02-27T21:23:41.076Z,64.24
2023-02-27T21:26:19.863Z,64.37
2023-02-27T21:28:54.409Z,63.81
2023-02-27T21:31:23.121Z,63.99
2023-02-27T21:33:51.074Z,64.00
2023-02-27T21:36:18.239Z,63.79
2023-02-27T21:38:49.254Z,63.97
2023-02-27T21:41:16.987Z,64.43
2023-02-27T21:43:44.043Z,64.48
2023-02-27T21:46:12.868Z,64.98
2023-02-27T21:48:40.012Z,64.88
2023-02-27T21:51:07.015Z,65.21
2023-02-27T21:53:36.596Z,65.24
2023-02-27T21:56:05.876Z,66.00
2023-02-27T21:58:33.689Z,66.27
2023-02-27T22:01:01.988Z,66.70
2023-02-27T22:03:35.266Z,65.97
2023-02-27T22:06:02.625Z,66.66
2023-02-27T22:08:29.257Z,66.85
2023-02-27T22:11:00.209Z,66.74
2023-02-27T22:13:27.599Z,66.87
2023-02-27T22:15:54.550Z,66.71
2023-02-27T22:18:21.237Z,66.63
2023-02-27T22:20:48.077Z,67.13
2023-02-27T22:23:14.909Z,67.58
2023-02-27T22:25:41.591Z,67.47
2023-02-27T22:28:08.264Z,67.88
2023-02-27T22:30:35.008Z,67.50
2023-02-27T22:33:01.627Z,67.91
2023-02-27T22:35:28.318Z,67.99
2023-02-27T22:37:54.952Z,68.57
2023-02-27T22:40:21.612Z,68.20
2023-02-27T22:42:48.191Z,67.91
2023-02-27T22:45:15.264Z,67.97
2023-02-27T22:47:41.923Z,68.59
2023-02-27T22:50:09.367Z,68.40
2023-02-27T22:52:36.742Z,68.59
2023-02-27T22:55:03.599Z,68.40
2023-02-27T22:57:30.290Z,68.53
2023-02-27T22:59:56.872Z,69.22
2023-02-27T23:02:23.530Z,69.41
2023-02-27T23:04:50.094Z,69.89
2023-02-27T23:07:16.669Z,69.40
2023-02-27T23:09:43.888Z,69.74
2023-02-27T23:12:10.585Z,69.72
2023-02-27T23:14:37.253Z,69.47
2023-02-27T23:17:03.893Z,69.97
2023-02-27T23:19:30.928Z,69.78
2023-02-27T23:22:07.000Z,69.81
2023-02-27T23:24:33.633Z,70.72
2023-02-27T23:27:00.201Z,70.57
2023-02-27T23:29:26.861Z,70.81
2023-02-27T23:31:53.711Z,71.58
2023-02-27T23:34:20.377Z,71.43
2023-02-27T23:36:47.054Z,72.45
2023-02-27T23:39:13.629Z,72.27
2023-02-27T23:41:40.519Z,71.96
2023-02-27T23:44:25.974Z,72.87
2023-02-27T23:46:52.998Z,72.76
2023-02-27T23:49:20.650Z,73.22
2023-02-27T23:51:47.420Z,73.21
2023-02-27T23:54:14.575Z,73.75
2023-02-27T23:56:43.042Z,74.46
2023-02-27T23:59:09.698Z,73.83
